Surface/Precipitation History
07/26/2016 03:38  to  7/27/2016 03:38
Change End Date:
Date/Time
(MDT)
Sf
Temp Chem Water Layer Surface Precipitation
Sfc Pvt Sub Frz Factor Pct Dpth DpthThk IcePct Cond Salin FI Type Intens Accum Rate
07/27/2016 03:36 Dry 63.3F - 81F - - - - - - 0 mhos 0 - None None - -
07/27/2016 03:29 Dry 63.3F - 81F - - - - - - 0 mhos 0 - None None - -
07/27/2016 03:20 Dry 63.7F - 81F - - - - - - 0 mhos 0 - None None - -
07/27/2016 03:19 Dry 63.7F - 81F - - - - - - 0 mhos 0 - None None - -
07/27/2016 03:09 Dry 64.2F - 81F - - - - - - 0 mhos 0 - None None - -
07/27/2016 03:05 Dry 64.4F - 81F - - - - - - 0 mhos 0 - None None - -
07/27/2016 02:58 Dry 64.4F - 82F - - - - - - 0 mhos 0 - None None - -
07/27/2016 02:51 Dry 64.6F - 82F - - - - - - 0 mhos 0 - None None - -
07/27/2016 02:48 Dry 64.8F - 82F - - - - - - 0 mhos 0 - None None - -
07/27/2016 02:38 Dry 65.1F - 82F - - - - - - 0 mhos 0 - None None - -
07/27/2016 02:36 Dry 65.3F - 82F - - - - - - 0 mhos 0 - None None - -
07/27/2016 02:28 Dry 65.7F - 82F - - - - - - 0 mhos 0 - None None - -
07/27/2016 02:20 Dry 66.0F - 82F - - - - - - 0 mhos 0 - None None - -
07/27/2016 02:18 Dry 66.2F - 82F - - - - - - 0 mhos 0 - None None - -
07/27/2016 02:08 Dry 66.6F - 82F - - - - - - 0 mhos 0 - None None - -
Date/Time
(MDT)
Sf
Temp Chem Water Layer Surface Precipitation
Sfc Pvt Sub Frz Factor Pct Dpth DpthThk IcePct Cond Salin FI Type Intens Accum Rate
07/27/2016 02:06 Dry 66.6F - 82F - - - - - - 0 mhos 0 - None None - -
07/27/2016 01:58 Dry 66.6F - 82F - - - - - - 0 mhos 0 - None None - -
07/27/2016 01:51 Dry 66.6F - 82F - - - - - - 0 mhos 0 - None None - -
07/27/2016 01:48 Dry 66.6F - 82F - - - - - - 0 mhos 0 - None None - -
07/27/2016 01:38 Dry 66.4F - 82F - - - - - - 0 mhos 0 - None None - -
07/27/2016 01:35 Dry 66.6F - 82F - - - - - - 0 mhos 0 - None None - -
07/27/2016 01:28 Dry 66.7F - 82F - - - - - - 0 mhos 0 - None None - -
07/27/2016 01:20 Dry 66.7F - 82F - - - - - - 0 mhos 0 - None None - -
07/27/2016 01:18 Dry 66.9F - 82F - - - - - - 0 mhos 0 - None None - -
07/27/2016 01:08 Dry 67.3F - 82F - - - - - - 0 mhos 0 - None None - -
07/27/2016 01:06 Dry 67.5F - 82F - - - - - - 0 mhos 0 - None None - -
07/27/2016 00:58 Dry 67.6F - 82F - - - - - - 0 mhos 0 - None None - -
07/27/2016 00:51 Dry 67.6F - 82F - - - - - - 0 mhos 0 - None None - -
07/27/2016 00:48 Dry 67.6F - 82F - - - - - - 0 mhos 0 - None None - -
07/27/2016 00:38 Dry 67.5F - 82F - - - - - - 0 mhos 0 - None None - -
Date/Time
(MDT)
Sf
Temp Chem Water Layer Surface Precipitation
Sfc Pvt Sub Frz Factor Pct Dpth DpthThk IcePct Cond Salin FI Type Intens Accum Rate
07/27/2016 00:36 Dry 67.5F - 82F - - - - - - 0 mhos 0 - None None - -
07/27/2016 00:28 Dry 67.6F - 82F - - - - - - 0 mhos 0 - None None - -
07/27/2016 00:20 Dry 67.6F - 82F - - - - - - 0 mhos 0 - None None - -
07/27/2016 00:18 Dry 67.6F - 82F - - - - - - 0 mhos 0 - None None - -
07/27/2016 00:08 Dry 66.7F - 82F - - - - - - 0 mhos 1 - None None - -
07/27/2016 00:06 Dry 66.6F - 82F - - - - - - 0 mhos 1 - None None - -
07/26/2016 23:58 Dry 66.7F - 82F - - - - - - 0 mhos 1 - None None - -
07/26/2016 23:51 Dry 67.3F - 82F - - - - - - 0 mhos 3 - None None - -
07/26/2016 23:48 Dry 67.8F - 82F - - - - - - 0 mhos 5 - None None - -
07/26/2016 23:37 Dry 68.2F - 82F - - - - - - 0 mhos 13 - None None - -
07/26/2016 23:35 Dry 68.2F - 82F - - - - - - 0 mhos 17 - None None - -
07/26/2016 23:27 Dry 68.9F - 82F - - - - - - 0 mhos 22 - None None - -
07/26/2016 23:21 Wet 69.1F - 82F 32F 5 0% 0.00 in - 0% 0 mhos 23 - None None - -
07/26/2016 23:17 Wet 69.1F - 82F 32F 5 0% 0.00 in - 0% 0 mhos 25 - None None - -
07/26/2016 23:07 Wet 69.6F - 82F 32F 5 0% 0.00 in - 0% 0 mhos 28 - None None - -
Date/Time
(MDT)
Sf
Temp Chem Water Layer Surface Precipitation
Sfc Pvt Sub Frz Factor Pct Dpth DpthThk IcePct Cond Salin FI Type Intens Accum Rate
07/26/2016 23:06 Wet 70.0F - 82F 32F 5 0% 0.00 in - 0% 0 mhos 26 - None None - -
07/26/2016 22:57 Wet 70.7F - 82F 32F 5 0% 0.00 in - 0% 1 mhos 35 - None None - -
07/26/2016 22:50 Wet 71.2F - 82F 32F 5 0% 0.00 in - 0% 1 mhos 35 - None None - -
07/26/2016 22:47 Wet 71.1F - 82F 32F 5 0% 0.00 in - 0% 1 mhos 35 - None None - -
07/26/2016 22:37 Wet 72.0F - 82F 32F 5 0% 0.00 in - 0% 1 mhos 36 - None None - -
07/26/2016 22:36 Wet 72.1F - 82F 32F 5 0% 0.00 in - 0% 1 mhos 36 - None None - -
07/26/2016 22:27 Wet 73.0F - 82F 32F 5 0% 0.00 in - 0% 1 mhos 39 - Yes - - -
07/26/2016 22:20 Wet 72.9F - 82F 32F 5 0% 0.00 in - 0% 0 mhos 25 - Yes - - -
07/26/2016 22:17 Wet 73.6F - 82F 32F 5 0% 0.00 in - 0% 0 mhos 3 - Yes - - -
07/26/2016 22:07 Dry 75.6F - 82F - - - - - - 0 mhos 0 - None None - -
07/26/2016 22:06 Dry 75.6F - 82F - - - - - - 0 mhos 0 - None None - -
07/26/2016 21:57 Dry 76.1F - 82F - - - - - - 0 mhos 0 - None None - -
07/26/2016 21:51 Dry 76.3F - 82F - - - - - - 0 mhos 0 - None None - -
07/26/2016 21:47 Dry 76.3F - 82F - - - - - - 0 mhos 0 - None None - -
07/26/2016 21:37 Dry 76.5F - 82F - - - - - - 0 mhos 0 - None None - -
Date/Time
(MDT)
Sf
Temp Chem Water Layer Surface Precipitation
Sfc Pvt Sub Frz Factor Pct Dpth DpthThk IcePct Cond Salin FI Type Intens Accum Rate
07/26/2016 21:35 Dry 76.5F - 82F - - - - - - 0 mhos 0 - None None - -
07/26/2016 21:27 Dry 76.6F - 82F - - - - - - 0 mhos 0 - None None - -
07/26/2016 21:20 Dry 76.6F - 82F - - - - - - 0 mhos 0 - None None - -
07/26/2016 21:17 Dry 76.6F - 82F - - - - - - 0 mhos 0 - None None - -
07/26/2016 21:07 Dry 76.5F - 82F - - - - - - 0 mhos 0 - None None - -
07/26/2016 21:05 Dry 76.5F - 82F - - - - - - 0 mhos 0 - None None - -
07/26/2016 20:57 Dry 76.5F - 82F - - - - - - 0 mhos 0 - None None - -
07/26/2016 20:50 Dry 76.5F - 82F - - - - - - 0 mhos 0 - None None - -
07/26/2016 20:47 Dry 76.5F - 82F - - - - - - 0 mhos 0 - None None - -
07/26/2016 20:37 Dry 76.5F - 82F - - - - - - 0 mhos 0 - None None - -
07/26/2016 20:35 Dry 76.3F - 82F - - - - - - 0 mhos 0 - None None - -
07/26/2016 20:27 Dry 75.4F - 82F - - - - - - 0 mhos 0 - None None - -
07/26/2016 20:19 Dry 73.6F - 81F - - - - - - 0 mhos 0 - None None - -
07/26/2016 20:16 Dry 73.4F - 81F - - - - - - 0 mhos 0 - None None - -
07/26/2016 20:06 Wet 74.3F - 81F 32F 5 0% 0.00 in - 0% 0 mhos 0 - None None - -
Date/Time
(MDT)
Sf
Temp Chem Water Layer Surface Precipitation
Sfc Pvt Sub Frz Factor Pct Dpth DpthThk IcePct Cond Salin FI Type Intens Accum Rate
07/26/2016 20:05 Wet 74.3F - 81F 32F 5 0% 0.00 in - 0% 0 mhos 0 - Yes - - -
07/26/2016 19:56 Dry 77.4F - 81F - - - - - - 0 mhos 0 - Yes - - -
07/26/2016 19:50 Dry 76.5F - 81F - - - - - - 0 mhos 0 - None None - -
07/26/2016 19:46 Dry 75.4F - 81F - - - - - - 0 mhos 0 - None None - -
07/26/2016 19:36 Wet 74.3F - 81F 32F 5 0% 0.00 in - 0% 0 mhos 0 - None None - -
07/26/2016 19:35 Wet 74.7F - 81F 32F 5 0% 0.00 in - 0% 0 mhos 0 - Yes - - -
07/26/2016 19:26 Dry 79.0F - 81F - - - - - - 0 mhos 0 - None None - -
07/26/2016 19:20 Dry 75.7F - 81F - - - - - - 0 mhos 0 - None None - -
07/26/2016 19:16 Dry 76.3F - 81F - - - - - - 0 mhos 0 - None None - -
07/26/2016 19:06 Wet 85.6F - 81F 32F 5 0% 0.00 in - 0% 0 mhos 0 - Yes - - -
07/26/2016 19:06 Wet 85.6F - 81F 32F 5 0% 0.00 in - 0% 0 mhos 0 - Yes - - -
07/26/2016 18:56 Dry 90.0F - 81F - - - - - - 0 mhos 0 - None None - -
07/26/2016 18:50 Dry 90.9F - 81F - - - - - - 0 mhos 0 - None None - -
07/26/2016 18:46 Dry 91.4F - 81F - - - - - - 0 mhos 0 - None None - -
07/26/2016 18:36 Dry 91.8F - 80F - - - - - - 0 mhos 0 - None None - -
Date/Time
(MDT)
Sf
Temp Chem Water Layer Surface Precipitation
Sfc Pvt Sub Frz Factor Pct Dpth DpthThk IcePct Cond Salin FI Type Intens Accum Rate
07/26/2016 18:35 Dry 91.9F - 80F - - - - - - 0 mhos 0 - Yes - - -
07/26/2016 18:26 Dry 93.0F - 80F - - - - - - 0 mhos 0 - None None - -
07/26/2016 18:20 Dry 93.0F - 80F - - - - - - 0 mhos 0 - None None - -
07/26/2016 18:16 Dry 93.4F - 80F - - - - - - 0 mhos 0 - None None - -
07/26/2016 18:06 Dry 93.6F - 80F - - - - - - 0 mhos 0 - None None - -
07/26/2016 18:06 Dry 93.7F - 80F - - - - - - 0 mhos 0 - None None - -
07/26/2016 17:56 Dry 93.2F - 80F - - - - - - 0 mhos 0 - None None - -
07/26/2016 17:50 Dry 90.0F - 80F - - - - - - 0 mhos 0 - None None - -
07/26/2016 17:46 Wet 91.9F - 80F 32F 5 0% 0.00 in - 0% 0 mhos 0 - Yes - - -
07/26/2016 17:36 Dry 103.8F - 80F - - - - - - 0 mhos 0 - None None - -
07/26/2016 17:35 Dry 103.8F - 80F - - - - - - 0 mhos 0 - None None - -
07/26/2016 17:26 Dry 105.4F - 80F - - - - - - 0 mhos 0 - None None - -
07/26/2016 17:20 Dry 107.8F - 80F - - - - - - 0 mhos 0 - None None - -
07/26/2016 17:15 Dry 109.9F - 80F - - - - - - 0 mhos 0 - None None - -
07/26/2016 17:05 Dry 114.3F - 80F - - - - - - 0 mhos 0 - None None - -
Date/Time
(MDT)
Sf
Temp Chem Water Layer Surface Precipitation
Sfc Pvt Sub Frz Factor Pct Dpth DpthThk IcePct Cond Salin FI Type Intens Accum Rate
07/26/2016 17:05 Dry 114.3F - 80F - - - - - - 0 mhos 0 - None None - -
07/26/2016 16:55 Dry 117.5F - 80F - - - - - - 0 mhos 0 - None None - -
07/26/2016 16:50 Dry 119.8F - 80F - - - - - - 0 mhos 0 - None None - -
07/26/2016 16:45 Dry 117.5F - 80F - - - - - - 0 mhos 0 - None None - -
07/26/2016 16:35 Dry 122.2F - 80F - - - - - - 0 mhos 0 - None None - -
07/26/2016 16:35 Dry 122.2F - 80F - - - - - - 0 mhos 0 - None None - -
07/26/2016 16:25 Dry 122.4F - 79F - - - - - - 0 mhos 0 - None None - -
07/26/2016 16:21 Dry 121.8F - 79F - - - - - - 0 mhos 0 - None None - -
07/26/2016 16:15 Dry 119.7F - 79F - - - - - - 0 mhos 0 - None None - -
07/26/2016 16:05 Dry 118.6F - 79F - - - - - - 0 mhos 0 - None None - -
07/26/2016 16:05 Dry 118.6F - 79F - - - - - - 0 mhos 0 - None None - -
07/26/2016 15:55 Dry 121.1F - 79F - - - - - - 0 mhos 0 - None None - -
07/26/2016 15:50 Dry 124.7F - 79F - - - - - - 0 mhos 0 - None None - -
07/26/2016 15:45 Dry 124.0F - 79F - - - - - - 0 mhos 0 - None None - -
07/26/2016 15:35 Dry 123.3F - 79F - - - - - - 0 mhos 0 - None None - -
Date/Time
(MDT)
Sf
Temp Chem Water Layer Surface Precipitation
Sfc Pvt Sub Frz Factor Pct Dpth DpthThk IcePct Cond Salin FI Type Intens Accum Rate
07/26/2016 15:35 Dry 123.3F - 79F - - - - - - 0 mhos 0 - None None - -
07/26/2016 15:25 Dry 123.3F - 79F - - - - - - 0 mhos 0 - None None - -
07/26/2016 15:20 Dry 123.8F - 79F - - - - - - 0 mhos 0 - None None - -
07/26/2016 15:15 Dry 123.3F - 79F - - - - - - 0 mhos 0 - None None - -
07/26/2016 15:05 Dry 123.3F - 79F - - - - - - 0 mhos 0 - None None - -
07/26/2016 15:05 Dry 123.3F - 79F - - - - - - 0 mhos 0 - None None - -
07/26/2016 14:55 Dry 123.3F - 79F - - - - - - 0 mhos 0 - None None - -
07/26/2016 14:50 Dry 123.3F - 79F - - - - - - 0 mhos 0 - None None - -
07/26/2016 14:45 Dry 122.7F - 79F - - - - - - 0 mhos 0 - None None - -
07/26/2016 14:35 Dry 123.8F - 79F - - - - - - 0 mhos 0 - None None - -
07/26/2016 14:35 Dry 123.8F - 79F - - - - - - 0 mhos 0 - None None - -
07/26/2016 14:25 Dry 123.3F - 79F - - - - - - 0 mhos 0 - None None - -
07/26/2016 14:20 Dry 122.2F - 79F - - - - - - 0 mhos 0 - None None - -
07/26/2016 14:15 Dry 121.8F - 79F - - - - - - 0 mhos 0 - None None - -
07/26/2016 14:05 Dry 121.8F - 79F - - - - - - 0 mhos 0 - None None - -
Date/Time
(MDT)
Sf
Temp Chem Water Layer Surface Precipitation
Sfc Pvt Sub Frz Factor Pct Dpth DpthThk IcePct Cond Salin FI Type Intens Accum Rate
07/26/2016 14:05 Dry 121.8F - 79F - - - - - - 0 mhos 0 - None None - -
07/26/2016 13:55 Dry 121.3F - 79F - - - - - - 0 mhos 0 - None None - -
07/26/2016 13:50 Dry 120.9F - 79F - - - - - - 0 mhos 0 - None None - -
07/26/2016 13:44 Dry 120.4F - 79F - - - - - - 0 mhos 0 - None None - -
07/26/2016 13:35 Dry 119.3F - 79F - - - - - - 0 mhos 0 - None None - -
07/26/2016 13:34 Dry 119.1F - 79F - - - - - - 0 mhos 0 - None None - -
07/26/2016 13:24 Dry 119.8F - 79F - - - - - - 0 mhos 0 - None None - -
07/26/2016 13:20 Dry 119.3F - 79F - - - - - - 0 mhos 0 - None None - -
07/26/2016 13:14 Dry 119.1F - 79F - - - - - - 0 mhos 0 - None None - -
07/26/2016 13:05 Dry 118.2F - 79F - - - - - - 0 mhos 0 - None None - -
07/26/2016 13:04 Dry 118.0F - 79F - - - - - - 0 mhos 0 - None None - -
07/26/2016 12:54 Dry 118.0F - 79F - - - - - - 0 mhos 0 - None None - -
07/26/2016 12:50 Dry 117.1F - 79F - - - - - - 0 mhos 0 - None None - -
07/26/2016 12:44 Dry 117.1F - 79F - - - - - - 0 mhos 0 - None None - -
07/26/2016 12:35 Dry 115.9F - 79F - - - - - - 0 mhos 0 - None None - -
Date/Time
(MDT)
Sf
Temp Chem Water Layer Surface Precipitation
Sfc Pvt Sub Frz Factor Pct Dpth DpthThk IcePct Cond Salin FI Type Intens Accum Rate
07/26/2016 12:34 Dry 115.9F - 79F - - - - - - 0 mhos 0 - None None - -
07/26/2016 12:24 Dry 115.0F - 79F - - - - - - 0 mhos 0 - None None - -
07/26/2016 12:20 Dry 114.6F - 79F - - - - - - 0 mhos 0 - None None - -
07/26/2016 12:14 Dry 113.7F - 79F - - - - - - 0 mhos 0 - None None - -
07/26/2016 12:05 Dry 113.0F - 79F - - - - - - 0 mhos 0 - None None - -
07/26/2016 12:04 Dry 112.5F - 79F - - - - - - 0 mhos 0 - None None - -
07/26/2016 11:54 Dry 110.8F - 79F - - - - - - 0 mhos 0 - None None - -
07/26/2016 11:50 Dry 110.1F - 79F - - - - - - 0 mhos 0 - None None - -
07/26/2016 11:44 Dry 109.6F - 79F - - - - - - 0 mhos 0 - None None - -
07/26/2016 11:35 Dry 108.3F - 79F - - - - - - 0 mhos 0 - None None - -
07/26/2016 11:34 Dry 108.5F - 79F - - - - - - 0 mhos 0 - None None - -
07/26/2016 11:24 Dry 106.7F - 79F - - - - - - 0 mhos 0 - None None - -
07/26/2016 11:20 Dry 106.7F - 79F - - - - - - 0 mhos 0 - None None - -
07/26/2016 11:14 Dry 105.1F - 79F - - - - - - 0 mhos 0 - None None - -
07/26/2016 11:05 Dry 104.2F - 79F - - - - - - 0 mhos 0 - None None - -
Date/Time
(MDT)
Sf
Temp Chem Water Layer Surface Precipitation
Sfc Pvt Sub Frz Factor Pct Dpth DpthThk IcePct Cond Salin FI Type Intens Accum Rate
07/26/2016 11:04 Dry 103.5F - 79F - - - - - - 0 mhos 0 - None None - -
07/26/2016 10:54 Dry 102.0F - 79F - - - - - - 0 mhos 0 - None None - -
07/26/2016 10:50 Dry 101.7F - 79F - - - - - - 0 mhos 0 - None None - -
07/26/2016 10:44 Dry 101.1F - 79F - - - - - - 0 mhos 0 - None None - -
07/26/2016 10:35 Dry 99.5F - 79F - - - - - - 0 mhos 0 - None None - -
07/26/2016 10:34 Dry 98.6F - 79F - - - - - - 0 mhos 0 - None None - -
07/26/2016 10:24 Dry 97.3F - 79F - - - - - - 0 mhos 0 - None None - -
07/26/2016 10:20 Dry 96.6F - 79F - - - - - - 0 mhos 0 - None None - -
07/26/2016 10:13 Dry 95.5F - 79F - - - - - - 0 mhos 0 - None None - -
07/26/2016 10:05 Dry 93.7F - 79F - - - - - - 0 mhos 0 - None None - -
07/26/2016 10:03 Dry 93.4F - 79F - - - - - - 0 mhos 0 - None None - -
07/26/2016 09:53 Dry 91.8F - 80F - - - - - - 0 mhos 0 - None None - -
07/26/2016 09:50 Dry 91.2F - 80F - - - - - - 0 mhos 0 - None None - -
07/26/2016 09:43 Dry 89.6F - 80F - - - - - - 0 mhos 0 - None None - -
07/26/2016 09:35 Dry 88.3F - 80F - - - - - - 0 mhos 0 - None None - -
Date/Time
(MDT)
Sf
Temp Chem Water Layer Surface Precipitation
Sfc Pvt Sub Frz Factor Pct Dpth DpthThk IcePct Cond Salin FI Type Intens Accum Rate
07/26/2016 09:33 Dry 88.3F - 80F - - - - - - 0 mhos 0 - None None - -
07/26/2016 09:23 Dry 87.4F - 80F - - - - - - 0 mhos 0 - None None - -
07/26/2016 09:20 Dry 86.7F - 80F - - - - - - 0 mhos 0 - None None - -
07/26/2016 09:13 Dry 85.8F - 80F - - - - - - 0 mhos 0 - None None - -
07/26/2016 09:05 Dry 84.7F - 80F - - - - - - 0 mhos 0 - None None - -
07/26/2016 09:03 Dry 84.4F - 80F - - - - - - 0 mhos 0 - None None - -
07/26/2016 08:53 Dry 82.8F - 80F - - - - - - 0 mhos 0 - None None - -
07/26/2016 08:50 Dry 82.4F - 80F - - - - - - 0 mhos 0 - None None - -
07/26/2016 08:43 Dry 81.1F - 80F - - - - - - 0 mhos 0 - None None - -
07/26/2016 08:35 Dry 79.7F - 80F - - - - - - 0 mhos 0 - None None - -
07/26/2016 08:33 Dry 79.3F - 80F - - - - - - 0 mhos 0 - None None - -
07/26/2016 08:23 Dry 77.9F - 80F - - - - - - 0 mhos 0 - None None - -
07/26/2016 08:20 Dry 77.4F - 80F - - - - - - 0 mhos 0 - None None - -
07/26/2016 08:13 Dry 76.3F - 80F - - - - - - 0 mhos 0 - None None - -
07/26/2016 08:05 Dry 74.7F - 80F - - - - - - 0 mhos 0 - None None - -
Date/Time
(MDT)
Sf
Temp Chem Water Layer Surface Precipitation
Sfc Pvt Sub Frz Factor Pct Dpth DpthThk IcePct Cond Salin FI Type Intens Accum Rate
07/26/2016 08:03 Dry 74.3F - 80F - - - - - - 0 mhos 0 - None None - -
07/26/2016 07:53 Dry 73.0F - 80F - - - - - - 0 mhos 0 - None None - -
07/26/2016 07:50 Dry 72.5F - 80F - - - - - - 0 mhos 0 - None None - -
07/26/2016 07:43 Dry 71.8F - 80F - - - - - - 0 mhos 0 - None None - -
07/26/2016 07:35 Dry 70.7F - 80F - - - - - - 0 mhos 0 - None None - -
07/26/2016 07:33 Dry 70.3F - 80F - - - - - - 0 mhos 0 - None None - -
07/26/2016 07:23 Dry 68.9F - 80F - - - - - - 0 mhos 0 - None None - -
07/26/2016 07:20 Dry 68.5F - 80F - - - - - - 0 mhos 0 - None None - -
07/26/2016 07:13 Dry 67.6F - 80F - - - - - - 0 mhos 0 - None None - -
07/26/2016 07:05 Dry 66.4F - 81F - - - - - - 0 mhos 0 - None None - -
07/26/2016 07:03 Dry 66.2F - 81F - - - - - - 0 mhos 0 - None None - -
07/26/2016 06:52 Dry 64.4F - 81F - - - - - - 0 mhos 0 - None None - -
07/26/2016 06:50 Dry 64.4F - 81F - - - - - - 0 mhos 0 - None None - -
07/26/2016 06:42 Dry 64.4F - 81F - - - - - - 0 mhos 0 - None None - -
07/26/2016 06:35 Dry 64.4F - 81F - - - - - - 0 mhos 0 - None None - -
Date/Time
(MDT)
Sf
Temp Chem Water Layer Surface Precipitation
Sfc Pvt Sub Frz Factor Pct Dpth DpthThk IcePct Cond Salin FI Type Intens Accum Rate
07/26/2016 06:32 Dry 64.4F - 81F - - - - - - 0 mhos 0 - None None - -
07/26/2016 06:22 Dry 64.2F - 81F - - - - - - 0 mhos 0 - None None - -
07/26/2016 06:20 Dry 64.2F - 81F - - - - - - 0 mhos 0 - None None - -
07/26/2016 06:12 Dry 64.2F - 81F - - - - - - 0 mhos 0 - None None - -
07/26/2016 06:05 Dry 64.4F - 81F - - - - - - 0 mhos 0 - None None - -
07/26/2016 06:02 Dry 64.4F - 81F - - - - - - 0 mhos 0 - None None - -
07/26/2016 05:52 Dry 64.4F - 81F - - - - - - 0 mhos 0 - None None - -
07/26/2016 05:50 Dry 64.4F - 81F - - - - - - 0 mhos 0 - None None - -
07/26/2016 05:42 Dry 64.8F - 81F - - - - - - 0 mhos 0 - None None - -
07/26/2016 05:35 Dry 64.9F - 81F - - - - - - 0 mhos 0 - None None - -
07/26/2016 05:32 Dry 65.1F - 81F - - - - - - 0 mhos 0 - None None - -
07/26/2016 05:22 Dry 65.5F - 81F - - - - - - 0 mhos 0 - None None - -
07/26/2016 05:20 Dry 65.5F - 81F - - - - - - 0 mhos 0 - None None - -
07/26/2016 05:12 Dry 65.7F - 81F - - - - - - 0 mhos 0 - None None - -
07/26/2016 05:05 Dry 65.7F - 81F - - - - - - 0 mhos 0 - None None - -
Date/Time
(MDT)
Sf
Temp Chem Water Layer Surface Precipitation
Sfc Pvt Sub Frz Factor Pct Dpth DpthThk IcePct Cond Salin FI Type Intens Accum Rate
07/26/2016 05:02 Dry 65.8F - 81F - - - - - - 0 mhos 0 - None None - -
07/26/2016 04:52 Dry 66.0F - 81F - - - - - - 0 mhos 0 - None None - -
07/26/2016 04:50 Dry 66.0F - 81F - - - - - - 0 mhos 0 - None None - -
07/26/2016 04:42 Dry 66.2F - 81F - - - - - - 0 mhos 0 - None None - -
07/26/2016 04:35 Dry 66.6F - 81F - - - - - - 0 mhos 0 - None None - -
07/26/2016 04:32 Dry 66.6F - 81F - - - - - - 0 mhos 0 - None None - -
07/26/2016 04:22 Dry 66.7F - 81F - - - - - - 0 mhos 0 - None None - -
07/26/2016 04:20 Dry 66.7F - 81F - - - - - - 0 mhos 0 - None None - -
07/26/2016 04:12 Dry 66.9F - 81F - - - - - - 0 mhos 0 - None None - -
07/26/2016 04:05 Dry 67.1F - 81F - - - - - - 0 mhos 0 - None None - -
07/26/2016 04:02 Dry 67.1F - 81F - - - - - - 0 mhos 0 - None None - -
07/26/2016 03:52 Dry 67.5F - 81F - - - - - - 0 mhos 0 - None None - -
07/26/2016 03:50 Dry 67.5F - 81F - - - - - - 0 mhos 0 - None None - -
07/26/2016 03:41 Dry 67.6F - 81F - - - - - - 0 mhos 0 - None None - -
Change End Date:

Copyright © 1998-2015 Vaisala, Inc.
All Rights Reserved
Send comments about the data to:
SCAN Web ® is a registered trademark of Vaisala, Inc.
SCAN Web Version 6.0